Oronoco, Minnesota
Current Conditions -  °F | °C
As of 3:13 PM on Tuesday 21 Oct 2014 (Local Time) from K9MN Reporting Station
Clear Clear  
Wind Chill: 56°   Ceiling: Unl
Heat Index: 56°   Visibility: 10mi
Dew Point: 36°   Wind: 6mph
Humidity: 48%   Direction: 150°SSE
Pressure: 30.17"   Gusts: NA
Location:  44.17°N, 92.53°W
Report Text: K9MN 212013Z AUTO 15005KT 10SM CLR 13/02 A3017 RMK AO1 T01320024
Loading
Personal Weather Stations






























Interactive Weather Map
Tropical Storm Tracking
New forecast layout! Learn more

10-Day Weather Forecast

Advertisements
Track Severe Weather on mobile